Time;durP1;ratioP1;P1;durP2;ratioP2;P2;SDS_P1;SDS_P2;PMS_P1;PMS_P2;Temp;Humidity;BMP_temperature;BMP_pressure;BME280_temperature;BME280_humidity;BME280_pressure;Samples;Min_cycle;Max_cycle;Signal;HPM_P1;HPM_P2
2023/02/02 00:01:26;;;;;;;7.78;4.82;;;20.50;58.80;;;;;;4974205;28;93735;-83
2023/02/02 00:03:52;;;;;;;5.75;4.07;;;20.50;58.80;;;;;;4974826;28;93236;-84
2023/02/02 00:06:19;;;;;;;10.45;5.10;;;20.50;58.80;;;;;;4974154;28;92587;-84
2023/02/02 00:19:18;;;;;;;7.47;4.50;;;20.40;58.90;;;;;;4971062;28;92316;-84
2023/02/02 00:21:43;;;;;;;;;;;20.40;58.80;;;;;;4970055;28;92784;-84
2023/02/02 00:24:11;;;;;;;7.55;4.15;;;20.40;58.80;;;;;;4971969;28;94550;-84
2023/02/02 00:26:38;;;;;;;7.30;4.47;;;20.40;58.80;;;;;;4986458;28;96233;-84
2023/02/02 00:29:07;;;;;;;8.95;4.82;;;20.40;58.80;;;;;;4973831;28;92160;-84
2023/02/02 00:31:36;;;;;;;7.80;4.50;;;20.30;59.00;;;;;;4989638;28;92043;-84
2023/02/02 00:34:01;;;;;;;8.35;4.63;;;20.30;59.00;;;;;;4973367;28;93076;-84
2023/02/02 00:36:27;;;;;;;8.13;4.45;;;20.30;58.90;;;;;;4974602;28;93312;-84
2023/02/02 00:38:53;;;;;;;7.05;4.10;;;20.30;59.10;;;;;;4974775;28;92130;-84
2023/02/02 01:04:51;;;;;;;6.28;3.85;;;20.20;58.60;;;;;;4973414;28;91931;-84
2023/02/02 01:07:16;;;;;;;7.53;4.32;;;20.20;58.60;;;;;;4974049;28;92903;-83
2023/02/02 01:09:42;;;;;;;4.97;3.50;;;20.20;58.70;;;;;;4973897;28;92793;-84
2023/02/02 01:12:08;;;;;;;8.75;4.22;;;20.10;58.70;;;;;;4974513;28;93264;-84
2023/02/02 01:31:41;;;;;;;6.85;4.00;;;20.10;58.70;;;;;;4973850;28;92074;-83
2023/02/02 01:34:07;;;;;;;5.95;4.05;;;20.00;58.70;;;;;;4988990;28;96795;-84
2023/02/02 01:36:33;;;;;;;7.43;3.97;;;20.00;58.60;;;;;;4973464;28;93249;-84
2023/02/02 01:38:59;;;;;;;6.32;3.83;;;20.00;58.50;;;;;;4973585;28;92749;-84
2023/02/02 01:41:26;;;;;;;5.30;3.83;;;20.00;58.80;;;;;;4973421;28;91737;-84
2023/02/02 01:44:02;;;;;;;7.30;3.65;;;20.00;58.50;;;;;;4974428;28;93062;-84
2023/02/02 01:46:34;;;;;;;6.88;3.60;;;20.00;58.50;;;;;;4976943;28;93307;-84
2023/02/02 01:49:06;;;;;;;7.43;4.07;;;20.00;58.40;;;;;;4966011;28;93531;-83
2023/02/02 01:51:48;;;;;;;6.78;4.25;;;20.00;58.30;;;;;;4976360;28;92499;-83
2023/02/02 01:57:57;;;;;;;7.07;3.90;;;19.90;58.50;;;;;;4976640;28;91986;-84
2023/02/02 02:00:26;;;;;;;7.88;3.92;;;20.00;58.40;;;;;;4976859;28;92364;-83
2023/02/02 02:02:55;;;;;;;5.22;3.45;;;19.90;58.40;;;;;;4976652;28;92386;-84
2023/02/02 02:05:24;;;;;;;;;;;19.90;58.40;;;;;;4977532;28;93827;-84
2023/02/02 02:07:55;;;;;;;;;;;19.90;58.50;;;;;;4993675;28;95781;-84
2023/02/02 02:10:20;;;;;;;4.88;3.63;;;19.90;58.40;;;;;;4993033;28;92252;-83
2023/02/02 02:12:47;;;;;;;7.40;3.72;;;19.90;58.40;;;;;;4976441;28;92211;-84
2023/02/02 02:18:19;;;;;;;7.50;4.05;;;19.90;58.50;;;;;;4976425;28;92410;-84
2023/02/02 02:28:07;;;;;;;6.63;3.88;;;19.80;58.40;;;;;;4976018;28;93247;-84
2023/02/02 02:30:49;;;;;;;5.57;3.40;;;19.80;58.40;;;;;;4975511;28;92812;-84
2023/02/02 02:33:25;;;;;;;7.60;3.55;;;19.80;58.40;;;;;;4977013;28;92288;-84
2023/02/02 02:36:07;;;;;;;8.32;4.38;;;19.80;58.40;;;;;;4977523;28;91754;-83
2023/02/02 02:38:48;;;;;;;6.97;4.07;;;19.80;58.40;;;;;;4976841;28;94292;-83
2023/02/02 02:41:24;;;;;;;6.95;4.03;;;19.80;58.30;;;;;;4976118;28;97731;-84
2023/02/02 02:44:02;;;;;;;4.97;3.42;;;19.80;58.30;;;;;;4976069;28;93282;-83
2023/02/02 02:46:28;;;;;;;4.97;3.47;;;19.80;58.20;;;;;;4976149;28;92514;-83
2023/02/02 02:48:57;;;;;;;6.47;3.67;;;19.80;58.20;;;;;;4976158;28;93688;-83
2023/02/02 02:51:57;;;;;;;5.65;3.10;;;19.80;58.20;;;;;;4975439;28;92329;-83
2023/02/02 02:54:25;;;;;;;;;;;19.80;58.20;;;;;;4954115;28;92459;-83
2023/02/02 02:56:53;;;;;;;4.90;3.30;;;19.70;58.10;;;;;;4954060;28;91949;-83
2023/02/02 02:59:33;;;;;;;5.72;3.70;;;19.70;58.20;;;;;;4954018;28;93559;-83
2023/02/02 03:02:41;;;;;;;7.57;3.75;;;19.70;58.20;;;;;;4953306;28;93898;-83
2023/02/02 03:05:32;;;;;;;6.37;3.43;;;19.70;58.30;;;;;;4952748;28;92879;-83
2023/02/02 03:08:31;;;;;;;5.85;3.13;;;19.70;58.30;;;;;;4953099;28;92709;-83
2023/02/02 03:10:58;;;;;;;6.28;3.70;;;19.70;58.50;;;;;;4952514;28;94493;-83
2023/02/02 03:13:25;;;;;;;5.95;3.28;;;19.70;58.30;;;;;;4952101;28;94156;-83
2023/02/02 03:16:10;;;;;;;4.88;3.25;;;19.70;58.40;;;;;;4953326;28;92681;-84
2023/02/02 03:18:36;;;;;;;5.70;3.10;;;19.60;58.30;;;;;;4952730;28;92393;-84
2023/02/02 03:21:02;;;;;;;5.70;3.20;;;19.70;58.20;;;;;;4952568;28;93709;-83
2023/02/02 03:23:27;;;;;;;4.32;2.97;;;19.60;58.20;;;;;;4952190;28;93294;-83
2023/02/02 03:25:54;;;;;;;4.95;3.20;;;19.60;58.10;;;;;;4952783;28;92494;-83
2023/02/02 03:28:21;;;;;;;7.47;3.35;;;19.60;58.20;;;;;;4953594;28;91856;-83
2023/02/02 03:30:48;;;;;;;4.80;3.45;;;19.60;58.30;;;;;;4970573;28;94354;-84
2023/02/02 03:33:15;;;;;;;6.05;3.55;;;19.60;58.10;;;;;;4989404;28;96975;-83
2023/02/02 03:35:40;;;;;;;5.70;3.15;;;19.60;58.10;;;;;;4974630;28;93383;-83
2023/02/02 03:38:13;;;;;;;6.10;3.65;;;19.60;58.10;;;;;;4976476;28;92191;-83
2023/02/02 03:40:39;;;;;;;6.63;3.70;;;19.60;58.20;;;;;;4975482;28;93591;-83
2023/02/02 03:49:50;;;;;;;4.53;3.17;;;19.60;58.10;;;;;;4974921;28;92276;-83
2023/02/02 03:52:16;;;;;;;6.60;3.60;;;19.50;57.90;;;;;;4974648;28;92751;-84
2023/02/02 03:54:41;;;;;;;5.72;3.35;;;19.50;57.90;;;;;;4975212;28;94014;-83
2023/02/02 03:57:07;;;;;;;5.78;3.17;;;19.50;58.00;;;;;;4974962;28;92275;-83
2023/02/02 03:59:35;;;;;;;5.72;3.00;;;19.50;58.00;;;;;;4975748;28;92225;-83
2023/02/02 04:13:59;;;;;;;4.68;3.08;;;19.50;58.00;;;;;;4946362;28;93500;-83
2023/02/02 04:16:25;;;;;;;4.18;3.13;;;19.50;58.00;;;;;;4974429;28;94029;-83
2023/02/02 04:18:50;;;;;;;5.72;3.42;;;19.40;57.90;;;;;;4975035;28;93888;-83
2023/02/02 04:21:16;;;;;;;5.35;2.88;;;19.50;58.00;;;;;;4974661;28;92081;-83
2023/02/02 04:23:44;;;;;;;5.63;3.47;;;19.50;58.10;;;;;;4974950;28;91554;-83
2023/02/02 04:26:09;;;;;;;4.82;3.30;;;19.50;57.90;;;;;;4975163;28;94101;-84
2023/02/02 04:28:35;;;;;;;5.32;3.08;;;19.40;58.00;;;;;;4974753;28;93715;-83
2023/02/02 04:31:01;;;;;;;5.47;3.28;;;19.40;58.00;;;;;;4974579;28;93415;-85
2023/02/02 04:33:27;;;;;;;6.25;3.60;;;19.40;58.00;;;;;;4974724;28;92204;-84
2023/02/02 04:39:33;;;;;;;5.75;2.40;;;19.40;57.90;;;;;;4974649;28;92698;-82
2023/02/02 04:41:59;;;;;;;6.70;3.45;;;19.50;53.00;;;;;;4974770;28;91919;-82
2023/02/02 04:44:24;;;;;;;4.38;2.50;;;19.50;54.20;;;;;;4975017;28;92398;-82
2023/02/02 04:46:50;;;;;;;6.28;2.75;;;19.50;54.40;;;;;;4963349;28;93584;-82
2023/02/02 04:49:16;;;;;;;5.45;2.78;;;19.50;54.40;;;;;;4974388;28;93202;-82
2023/02/02 04:51:51;;;;;;;6.00;2.75;;;19.40;54.60;;;;;;4974306;28;92407;-82
2023/02/02 04:54:17;;;;;;;5.00;2.95;;;19.40;54.80;;;;;;4973974;28;92516;-82
2023/02/02 05:00:11;;;;;;;4.32;2.65;;;19.40;54.30;;;;;;4974003;28;92797;-82
2023/02/02 05:02:37;;;;;;;5.45;3.17;;;19.40;54.20;;;;;;4974141;28;92515;-82
2023/02/02 05:05:04;;;;;;;5.03;2.83;;;19.40;54.10;;;;;;4974493;28;92469;-82
2023/02/02 05:07:30;;;;;;;6.60;2.60;;;19.40;54.00;;;;;;4972710;28;95414;-83
2023/02/02 05:09:56;;;;;;;8.07;2.75;;;19.40;53.90;;;;;;4973794;28;93183;-82
2023/02/02 05:15:43;;;;;;;6.60;2.95;;;19.40;53.90;;;;;;4972584;28;91515;-82
2023/02/02 05:18:09;;;;;;;8.75;2.90;;;19.30;53.70;;;;;;4974031;28;93543;-82
2023/02/02 05:20:35;;;;;;;5.63;2.63;;;19.30;53.70;;;;;;4977661;28;92906;-82
2023/02/02 05:23:00;;;;;;;6.90;2.33;;;19.30;53.80;;;;;;4976713;28;93547;-82
2023/02/02 05:25:26;;;;;;;5.25;2.40;;;19.30;53.80;;;;;;4977322;28;92282;-82
2023/02/02 05:27:51;;;;;;;5.57;2.70;;;19.30;53.70;;;;;;4976915;28;94020;-82
2023/02/02 05:30:17;;;;;;;5.32;2.60;;;19.30;53.70;;;;;;4975793;28;95019;-82
2023/02/02 05:32:42;;;;;;;4.20;2.58;;;19.30;53.60;;;;;;4977360;28;92370;-82
2023/02/02 05:35:09;;;;;;;6.35;2.47;;;19.30;53.40;;;;;;4977702;28;92378;-82
2023/02/02 05:40:57;;;;;;;5.38;2.42;;;19.30;53.40;;;;;;4976267;28;91851;-82
2023/02/02 05:43:29;;;;;;;8.05;2.92;;;19.30;53.20;;;;;;4967519;28;92529;-82
2023/02/02 05:45:55;;;;;;;5.32;2.40;;;19.30;53.30;;;;;;4977330;28;92658;-82
2023/02/02 05:48:21;;;;;;;4.63;2.55;;;19.30;53.50;;;;;;4990976;28;97712;-82
2023/02/02 05:50:56;;;;;;;5.22;2.40;;;19.30;53.40;;;;;;4976795;28;94170;-81
2023/02/02 06:06:49;;;;;;;3.83;2.22;;;19.20;53.10;;;;;;4975374;28;92419;-82
2023/02/02 06:09:15;;;;;;;6.60;3.05;;;19.30;53.20;;;;;;4976961;28;91610;-82
2023/02/02 06:11:43;;;;;;;5.63;2.72;;;19.20;52.90;;;;;;4975285;28;97042;-82
2023/02/02 06:14:08;;;;;;;4.93;2.20;;;19.20;53.00;;;;;;4976931;28;93148;-82
2023/02/02 06:16:34;;;;;;;4.53;2.40;;;19.20;52.90;;;;;;4976144;28;93528;-82
2023/02/02 06:19:00;;;;;;;6.50;2.42;;;19.20;52.80;;;;;;4977608;28;92223;-82
2023/02/02 06:21:25;;;;;;;3.45;2.08;;;19.10;52.80;;;;;;4975805;28;93584;-82
2023/02/02 06:23:51;;;;;;;6.03;2.72;;;19.10;52.80;;;;;;4976151;28;93489;-82
2023/02/02 06:26:17;;;;;;;4.43;2.22;;;19.10;53.00;;;;;;4978103;28;92535;-82
2023/02/02 06:28:48;;;;;;;5.38;2.40;;;19.10;53.10;;;;;;4976067;28;92678;-83
2023/02/02 06:31:17;;;;;;;4.50;2.60;;;19.10;53.00;;;;;;4976695;28;93812;-82
2023/02/02 06:33:44;;;;;;;5.85;2.38;;;19.10;53.00;;;;;;4976243;28;92228;-83
2023/02/02 06:36:09;;;;;;;6.20;2.58;;;19.10;53.00;;;;;;4975792;28;92014;-82
2023/02/02 06:38:35;;;;;;;7.68;2.83;;;19.10;53.00;;;;;;4977213;28;92540;-81
2023/02/02 06:41:01;;;;;;;6.10;2.45;;;19.10;53.00;;;;;;4975152;28;94057;-83
2023/02/02 06:43:32;;;;;;;4.80;2.28;;;19.10;53.00;;;;;;4975924;28;94348;-84
2023/02/02 06:45:59;;;;;;;4.78;2.33;;;19.20;53.80;;;;;;4966882;28;92317;-84
2023/02/02 06:48:25;;;;;;;4.85;1.92;;;19.10;53.90;;;;;;4972186;28;92006;-84
2023/02/02 06:50:50;;;;;;;6.88;2.53;;;19.10;54.00;;;;;;4962330;28;93429;-83
2023/02/02 06:53:21;;;;;;;5.90;2.88;;;19.10;54.20;;;;;;4972620;28;93736;-83
2023/02/02 06:56:02;;;;;;;8.20;2.78;;;19.10;54.50;;;;;;4973050;28;92456;-83
2023/02/02 06:58:29;;;;;;;8.60;2.80;;;19.20;54.50;;;;;;4975081;28;91735;-83
2023/02/02 07:00:59;;;;;;;7.00;3.03;;;19.40;54.50;;;;;;4976240;28;93704;-82
2023/02/02 07:03:25;;;;;;;6.38;3.00;;;19.50;54.60;;;;;;4977348;28;93517;-83
2023/02/02 07:05:50;;;;;;;7.18;2.72;;;19.70;54.50;;;;;;4975443;28;93649;-84
2023/02/02 07:11:47;;;;;;;8.20;2.95;;;20.00;54.20;;;;;;4975496;28;96722;-84
2023/02/02 07:14:12;;;;;;;5.05;2.30;;;20.10;54.10;;;;;;4976623;28;92252;-83
2023/02/02 07:16:38;;;;;;;6.95;2.75;;;20.20;54.20;;;;;;4977177;28;92597;-84
2023/02/02 07:19:03;;;;;;;7.22;2.72;;;20.30;54.20;;;;;;4975878;28;92433;-84
2023/02/02 07:21:34;;;;;;;4.97;2.00;;;20.30;54.20;;;;;;4975371;28;93061;-84
2023/02/02 07:24:01;;;;;;;5.43;2.40;;;20.30;54.50;;;;;;4975357;28;93898;-84
2023/02/02 07:26:27;;;;;;;7.97;2.60;;;20.40;54.40;;;;;;4976296;28;91891;-84
2023/02/02 07:28:52;;;;;;;4.88;2.47;;;20.30;54.40;;;;;;4975162;28;92318;-83
2023/02/02 07:31:21;;;;;;;6.28;2.40;;;20.30;54.50;;;;;;4974613;28;94579;-83
2023/02/02 07:47:14;;;;;;;7.10;2.65;;;20.00;54.10;;;;;;4972353;28;96386;-85
2023/02/02 07:49:40;;;;;;;10.38;2.47;;;20.10;54.20;;;;;;4966919;28;92325;-85
2023/02/02 07:52:06;;;;;;;8.25;2.47;;;20.00;54.60;;;;;;4990547;28;91807;-84
2023/02/02 07:54:32;;;;;;;9.25;3.13;;;19.90;55.10;;;;;;4975099;28;93687;-83
2023/02/02 07:56:59;;;;;;;5.65;2.20;;;19.90;55.30;;;;;;4988730;28;96293;-84
2023/02/02 07:59:34;;;;;;;5.85;2.40;;;19.90;55.30;;;;;;4975227;28;93264;-84
2023/02/02 08:01:59;;;;;;;8.23;2.63;;;20.00;55.60;;;;;;4975144;28;92403;-83
2023/02/02 08:04:25;;;;;;;7.00;2.50;;;20.10;55.60;;;;;;4974577;28;94131;-83
2023/02/02 08:06:50;;;;;;;4.43;2.10;;;20.10;55.30;;;;;;4973967;28;94386;-83
2023/02/02 08:09:16;;;;;;;5.78;2.53;;;20.30;55.40;;;;;;4972886;28;92392;-83
2023/02/02 08:11:42;;;;;;;10.18;2.65;;;20.30;55.20;;;;;;4974437;28;92395;-83
2023/02/02 08:14:11;;;;;;;8.18;2.40;;;20.40;55.10;;;;;;4974877;28;93360;-83
2023/02/02 08:16:36;;;;;;;8.23;3.05;;;20.60;55.00;;;;;;4914924;28;93885;-83
2023/02/02 08:19:02;;;;;;;12.43;3.38;;;20.60;55.20;;;;;;4989862;28;92457;-83
2023/02/02 08:21:28;;;;;;;25.55;4.82;;;20.70;55.60;;;;;;4975133;28;92416;-83
2023/02/02 08:23:54;;;;;;;17.30;3.90;;;20.70;56.70;;;;;;4973284;28;95107;-83
2023/02/02 08:26:22;;;;;;;15.13;4.97;;;20.70;55.90;;;;;;4974479;28;93865;-84
2023/02/02 08:28:53;;;;;;;12.73;4.30;;;20.70;55.60;;;;;;4975001;28;92151;-84
2023/02/02 08:31:24;;;;;;;14.30;4.45;;;20.80;56.00;;;;;;4974445;28;92495;-84
2023/02/02 08:34:00;;;;;;;;;;;;;;;;;;;;;
2023/02/02 08:36:28;;;;;;;14.82;4.20;;;20.70;56.20;;;;;;4973719;28;96508;-83
2023/02/02 08:38:55;;;;;;;18.52;5.10;;;20.60;56.40;;;;;;4973324;28;92283;-83
2023/02/02 08:41:22;;;;;;;15.27;4.70;;;20.60;56.60;;;;;;4976567;28;91506;-84
2023/02/02 08:43:49;;;;;;;15.18;4.70;;;20.60;56.50;;;;;;4974692;28;92824;-84
2023/02/02 08:46:16;;;;;;;16.42;4.95;;;20.60;56.70;;;;;;4963629;28;93266;-84
2023/02/02 08:48:41;;;;;;;12.63;4.60;;;20.60;56.60;;;;;;4973199;28;93569;-84
2023/02/02 08:51:09;;;;;;;18.48;4.78;;;20.70;56.70;;;;;;4974956;28;91883;-83
2023/02/02 08:53:35;;;;;;;21.02;5.68;;;20.70;56.60;;;;;;4973796;28;97056;-84
2023/02/02 09:02:48;;;;;;;30.95;9.10;;;20.90;55.00;;;;;;4974026;28;92511;-83
2023/02/02 09:05:14;;;;;;;36.70;10.50;;;20.90;54.50;;;;;;4974788;28;93727;-83
2023/02/02 09:07:39;;;;;;;45.05;11.88;;;21.00;54.10;;;;;;4972104;28;92690;-83
2023/02/02 09:10:05;;;;;;;38.65;11.30;;;21.00;53.80;;;;;;4987964;28;92545;-83
2023/02/02 09:12:31;;;;;;;40.35;11.50;;;20.90;54.30;;;;;;4987972;28;92436;-84
2023/02/02 09:20:03;;;;;;;46.80;11.90;;;20.90;54.20;;;;;;4945290;28;93501;-82
2023/02/02 09:22:29;;;;;;;43.20;11.43;;;20.90;56.20;;;;;;4973118;28;91984;-83
2023/02/02 09:24:55;;;;;;;42.83;11.55;;;20.80;57.00;;;;;;4973034;28;92421;-83
2023/02/02 09:27:20;;;;;;;48.83;10.85;;;20.70;58.30;;;;;;4972575;28;94014;-84
2023/02/02 09:29:49;;;;;;;36.15;11.30;;;20.60;57.90;;;;;;4971661;28;93787;-83
2023/02/02 09:32:14;;;;;;;38.42;10.43;;;20.60;57.60;;;;;;4973784;28;92222;-82
2023/02/02 09:34:40;;;;;;;39.28;10.00;;;20.60;57.30;;;;;;4971180;28;91857;-82
2023/02/02 09:37:05;;;;;;;40.10;10.75;;;20.60;57.30;;;;;;4972549;28;93108;-83
2023/02/02 09:39:31;;;;;;;30.10;8.57;;;20.60;57.50;;;;;;4972325;28;92871;-83
2023/02/02 09:42:31;;;;;;;26.85;9.05;;;20.50;57.30;;;;;;4972309;28;92959;-83
2023/02/02 09:45:10;;;;;;;40.92;10.75;;;20.40;57.40;;;;;;4973132;28;92457;-82
2023/02/02 09:48:16;;;;;;;39.28;10.38;;;20.40;57.40;;;;;;4988130;28;96703;-82
2023/02/02 09:50:58;;;;;;;35.30;10.20;;;20.40;56.70;;;;;;4972476;28;96916;-81
2023/02/02 09:53:46;;;;;;;38.42;9.40;;;20.50;56.60;;;;;;4972000;28;92202;-83
2023/02/02 09:56:32;;;;;;;34.13;9.60;;;20.50;55.80;;;;;;4972389;28;92341;-84
2023/02/02 09:59:02;;;;;;;30.23;8.77;;;20.60;54.90;;;;;;4972712;28;92637;-83
2023/02/02 10:01:32;;;;;;;;;;;20.70;54.70;;;;;;4974376;28;92837;-83
2023/02/02 10:04:05;;;;;;;21.40;7.93;;;20.80;55.60;;;;;;4975424;28;92364;-83
2023/02/02 10:06:40;;;;;;;31.70;8.00;;;20.80;55.00;;;;;;4976262;28;92152;-84
2023/02/02 10:09:19;;;;;;;24.58;7.70;;;20.80;54.70;;;;;;4973288;28;96083;-84
2023/02/02 10:11:50;;;;;;;30.10;8.88;;;20.80;59.90;;;;;;4967142;28;94368;-83
2023/02/02 10:14:43;;;;;;;26.55;7.80;;;20.80;66.00;;;;;;4975568;28;92418;-83
2023/02/02 10:17:44;;;;;;;27.25;8.57;;;20.80;65.70;;;;;;4973112;28;92655;-84
2023/02/02 10:20:21;;;;;;;27.58;8.50;;;20.70;70.80;;;;;;4972985;28;97666;-83
2023/02/02 10:23:10;;;;;;;24.75;6.85;;;20.70;70.70;;;;;;4972781;28;92054;-83
2023/02/02 10:25:41;;;;;;;17.20;5.38;;;20.60;71.90;;;;;;4969479;28;92682;-82
2023/02/02 10:28:16;;;;;;;22.65;6.95;;;20.50;64.90;;;;;;4971418;28;91676;-82
2023/02/02 10:30:54;;;;;;;23.35;6.32;;;20.50;62.00;;;;;;4972006;28;93688;-83
2023/02/02 10:33:36;;;;;;;20.05;6.13;;;20.50;63.00;;;;;;4971267;28;93413;-81
2023/02/02 10:36:04;;;;;;;18.65;6.07;;;20.40;63.70;;;;;;4971536;28;93047;-83
2023/02/02 10:38:41;;;;;;;14.40;5.28;;;20.40;63.50;;;;;;4973558;28;92389;-84
2023/02/02 10:41:15;;;;;;;19.23;5.97;;;20.50;59.00;;;;;;4973296;28;98397;-84
2023/02/02 10:47:08;;;;;;;18.35;6.07;;;20.50;58.60;;;;;;4972952;28;92249;-84
2023/02/02 10:49:38;;;;;;;21.02;5.63;;;20.40;59.30;;;;;;4974022;28;92603;-83
2023/02/02 10:52:10;;;;;;;16.80;5.30;;;20.40;57.60;;;;;;4974680;28;93876;-86
2023/02/02 10:58:10;;;;;;;18.17;5.13;;;20.50;58.10;;;;;;4974608;28;92416;-84
2023/02/02 11:00:36;;;;;;;16.77;5.43;;;20.70;58.20;;;;;;4977286;28;92429;-84
2023/02/02 11:03:05;;;;;;;20.63;5.47;;;20.80;58.30;;;;;;4974990;28;94310;-84
2023/02/02 11:08:23;;;;;;;14.05;4.85;;;21.10;58.20;;;;;;4976863;28;92409;-83
2023/02/02 11:11:10;;;;;;;15.48;4.82;;;21.20;58.40;;;;;;4974221;28;92150;-84
2023/02/02 11:13:42;;;;;;;12.38;4.63;;;21.30;58.50;;;;;;5012108;28;94094;-83
2023/02/02 11:16:14;;;;;;;10.75;4.82;;;21.30;58.40;;;;;;5012128;28;93299;-84
2023/02/02 11:18:40;;;;;;;13.13;4.63;;;21.30;58.50;;;;;;5013461;28;92526;-83
2023/02/02 11:21:30;;;;;;;16.25;5.25;;;21.30;58.60;;;;;;5013116;28;91606;-83
2023/02/02 11:31:01;;;;;;;18.13;5.38;;;21.50;59.10;;;;;;5012208;28;93680;-84
2023/02/02 11:33:34;;;;;;;13.82;5.15;;;21.50;59.20;;;;;;5012087;28;92228;-84
2023/02/02 11:36:05;;;;;;;15.45;5.57;;;21.50;58.70;;;;;;5012122;28;93620;-84
2023/02/02 11:38:31;;;;;;;13.75;4.70;;;21.50;59.10;;;;;;5012062;28;96558;-83
2023/02/02 11:41:05;;;;;;;14.52;4.30;;;21.50;59.20;;;;;;5012424;28;92201;-84
2023/02/02 11:54:20;;;;;;;15.88;4.30;;;21.50;59.30;;;;;;4974765;28;91948;-85
2023/02/02 11:56:54;;;;;;;15.87;5.07;;;21.60;59.00;;;;;;4951355;28;92743;-85
2023/02/02 11:59:40;;;;;;;28.38;5.45;;;21.60;59.20;;;;;;4951997;28;94557;-85
2023/02/02 12:02:22;;;;;;;15.65;4.85;;;21.60;59.30;;;;;;4934793;28;101009;-85
2023/02/02 12:04:51;;;;;;;17.05;4.68;;;21.60;59.20;;;;;;4951906;28;92839;-85
2023/02/02 12:07:29;;;;;;;11.23;4.17;;;21.60;59.00;;;;;;4952019;28;92845;-85
2023/02/02 12:10:03;;;;;;;10.80;3.87;;;21.60;59.00;;;;;;4951610;28;93305;-85
2023/02/02 12:12:42;;;;;;;12.25;4.30;;;21.60;58.90;;;;;;4951856;28;94117;-86
2023/02/02 12:15:18;;;;;;;12.63;4.88;;;21.60;59.30;;;;;;4935106;28;91915;-84
2023/02/02 12:17:45;;;;;;;11.80;4.28;;;21.50;58.90;;;;;;4952216;28;91844;-86
2023/02/02 12:20:20;;;;;;;12.25;4.43;;;21.50;59.00;;;;;;4951981;28;93697;-86
2023/02/02 12:23:11;;;;;;;14.23;4.40;;;21.60;58.40;;;;;;4951416;28;93298;-86
2023/02/02 12:25:47;;;;;;;11.13;3.80;;;21.60;58.40;;;;;;4951256;28;93801;-85
2023/02/02 12:28:37;;;;;;;12.45;4.30;;;21.60;58.20;;;;;;4969078;28;92503;-85
2023/02/02 12:31:25;;;;;;;13.45;4.45;;;21.60;58.30;;;;;;4974381;28;93634;-85
2023/02/02 12:33:59;;;;;;;11.23;4.35;;;21.50;58.70;;;;;;4973372;28;93404;-85
2023/02/02 12:36:35;;;;;;;9.98;3.95;;;21.50;58.70;;;;;;4975275;28;92257;-85
2023/02/02 12:39:13;;;;;;;10.15;3.90;;;21.50;58.70;;;;;;4974340;28;92307;-84
2023/02/02 12:41:47;;;;;;;11.85;3.90;;;21.60;58.70;;;;;;4974182;28;94112;-83
2023/02/02 12:44:56;;;;;;;9.43;3.88;;;21.60;58.60;;;;;;4989732;28;96609;-84
2023/02/02 12:47:35;;;;;;;9.48;3.70;;;21.70;58.30;;;;;;4974213;28;92273;-84
2023/02/02 12:50:19;;;;;;;12.27;3.97;;;21.70;58.30;;;;;;4974277;28;92496;-84
2023/02/02 12:52:55;;;;;;;13.25;4.43;;;21.70;58.10;;;;;;4973169;28;94644;-84
2023/02/02 12:55:50;;;;;;;11.07;3.78;;;21.70;58.00;;;;;;4973588;28;93767;-84
2023/02/02 12:58:34;;;;;;;11.93;4.25;;;21.70;58.20;;;;;;4973620;28;92333;-83
2023/02/02 13:01:09;;;;;;;8.77;3.42;;;21.70;58.20;;;;;;4973090;28;92324;-83
2023/02/02 13:03:51;;;;;;;9.90;3.63;;;21.60;57.40;;;;;;4973330;28;93773;-84
2023/02/02 13:06:55;;;;;;;10.50;4.22;;;21.60;57.80;;;;;;4973850;28;92632;-83
2023/02/02 13:09:40;;;;;;;11.80;4.20;;;21.50;57.70;;;;;;4973677;28;92541;-84
2023/02/02 13:12:12;;;;;;;10.07;4.10;;;21.50;58.00;;;;;;4973694;28;91619;-83
2023/02/02 13:15:07;;;;;;;10.20;3.85;;;21.50;58.10;;;;;;4974170;28;93184;-83
2023/02/02 13:18:26;;;;;;;11.02;4.32;;;21.50;58.00;;;;;;4951122;28;94067;-84
2023/02/02 13:21:00;;;;;;;8.27;3.42;;;21.50;57.90;;;;;;4931334;28;93050;-83
2023/02/02 13:23:39;;;;;;;9.23;3.00;;;21.60;57.80;;;;;;4932071;28;92675;-83
2023/02/02 13:28:43;;;;;;;8.55;3.25;;;21.70;57.80;;;;;;4932502;28;93276;-88
2023/02/02 13:31:26;;;;;;;11.13;3.95;;;21.80;57.90;;;;;;4933236;28;92168;-89
2023/02/02 13:34:15;;;;;;;7.95;3.88;;;21.80;57.30;;;;;;4931577;28;92477;-89
2023/02/02 13:36:49;;;;;;;9.98;3.53;;;21.80;57.30;;;;;;4931586;28;93596;-89
2023/02/02 13:53:02;;;;;;;8.85;3.40;;;21.80;58.10;;;;;;4903626;28;92767;-88
2023/02/02 13:56:02;;;;;;;8.77;3.95;;;21.70;58.10;;;;;;4930288;28;92630;-89
2023/02/02 13:58:56;;;;;;;14.38;3.35;;;21.70;58.40;;;;;;4935674;28;91984;-89
2023/02/02 14:01:23;;;;;;;9.82;3.45;;;21.70;58.40;;;;;;4915461;28;93871;-89
2023/02/02 14:03:55;;;;;;;9.80;3.13;;;21.80;58.40;;;;;;4915220;28;93557;-89
2023/02/02 14:07:03;;;;;;;9.05;3.13;;;21.80;58.60;;;;;;4916234;28;92636;-89
2023/02/02 14:09:33;;;;;;;7.28;2.83;;;21.80;58.50;;;;;;4924479;28;92657;-89
2023/02/02 14:12:09;;;;;;;8.75;3.50;;;21.90;58.30;;;;;;4974457;28;93299;-88
2023/02/02 14:14:38;;;;;;;8.70;3.30;;;22.10;58.30;;;;;;4974733;28;94145;-89
2023/02/02 14:20:48;;;;;;;8.48;3.38;;;22.30;57.90;;;;;;4974974;28;92546;-85
2023/02/02 14:23:51;;;;;;;11.93;3.30;;;22.40;57.70;;;;;;4973164;28;97975;-86
2023/02/02 14:26:39;;;;;;;6.18;1.98;;;22.50;57.70;;;;;;4956846;28;98825;-84
2023/02/02 14:29:30;;;;;;;6.25;2.38;;;22.50;57.00;;;;;;4974193;28;92520;-85
2023/02/02 14:32:05;;;;;;;5.47;2.50;;;22.50;56.40;;;;;;4973955;28;92432;-87
2023/02/02 14:34:38;;;;;;;7.97;2.80;;;22.50;55.50;;;;;;4973989;28;93814;-87
2023/02/02 14:40:57;;;;;;;14.75;3.63;;;22.60;55.40;;;;;;4975322;28;92428;-87
2023/02/02 14:43:44;;;;;;;20.48;4.78;;;22.50;51.60;;;;;;4975870;28;92976;-85
2023/02/02 14:46:13;;;;;;;19.98;5.18;;;22.40;53.20;;;;;;4975319;28;94991;-86
2023/02/02 14:48:46;;;;;;;16.77;4.40;;;22.40;53.80;;;;;;4975369;28;94224;-86
2023/02/02 14:51:26;;;;;;;17.08;4.18;;;22.40;53.90;;;;;;4972722;28;92473;-86
2023/02/02 14:53:58;;;;;;;22.05;4.85;;;22.30;53.80;;;;;;4924209;28;92031;-85
2023/02/02 14:57:04;;;;;;;16.38;4.65;;;22.30;54.20;;;;;;4974650;28;93703;-84
2023/02/02 14:59:36;;;;;;;14.07;4.00;;;22.30;54.30;;;;;;4950284;28;97795;-82
2023/02/02 15:02:20;;;;;;;17.85;4.60;;;22.40;54.20;;;;;;4949234;28;92247;-84
2023/02/02 15:04:46;;;;;;;14.95;4.15;;;22.50;54.10;;;;;;4948794;28;91872;-86
2023/02/02 15:07:21;;;;;;;13.57;4.60;;;22.50;54.10;;;;;;4949158;28;94314;-86
2023/02/02 15:09:48;;;;;;;13.73;4.05;;;22.60;54.70;;;;;;4948082;28;93877;-87
2023/02/02 15:12:16;;;;;;;16.02;4.40;;;22.60;54.80;;;;;;4942007;28;93441;-84
2023/02/02 15:14:52;;;;;;;14.32;4.10;;;22.60;54.90;;;;;;4953192;28;92450;-85
2023/02/02 15:17:48;;;;;;;12.77;4.40;;;22.60;55.30;;;;;;4953347;28;93384;-84
2023/02/02 15:20:25;;;;;;;11.68;4.47;;;22.60;55.50;;;;;;4949824;28;97613;-86
2023/02/02 15:23:23;;;;;;;17.92;4.63;;;22.60;55.70;;;;;;4914224;28;92528;-88
2023/02/02 15:26:11;;;;;;;13.35;4.13;;;22.50;56.00;;;;;;4914798;28;93909;-86
2023/02/02 15:28:43;;;;;;;15.20;4.40;;;22.50;56.60;;;;;;4913437;28;93669;-84
2023/02/02 15:31:40;;;;;;;20.27;4.85;;;22.50;56.70;;;;;;4944805;28;96677;-84
2023/02/02 15:37:57;;;;;;;18.77;4.03;;;22.50;57.20;;;;;;4935213;28;93021;-87
2023/02/02 15:40:25;;;;;;;14.02;3.72;;;22.40;56.50;;;;;;4935741;28;94569;-83
2023/02/02 15:43:09;;;;;;;15.57;3.80;;;22.40;57.30;;;;;;4936618;28;94810;-83
2023/02/02 15:45:52;;;;;;;11.50;3.88;;;22.40;57.70;;;;;;4936283;28;92118;-84
2023/02/02 15:48:30;;;;;;;9.98;4.03;;;22.40;57.80;;;;;;4936316;28;92090;-84
2023/02/02 15:51:02;;;;;;;12.73;4.20;;;22.40;58.20;;;;;;4934163;28;93616;-86
2023/02/02 15:53:46;;;;;;;12.77;3.88;;;22.30;57.60;;;;;;4933351;28;93464;-87
2023/02/02 15:56:23;;;;;;;11.77;2.83;;;22.30;55.80;;;;;;4935932;28;92434;-87
2023/02/02 16:02:11;;;;;;;9.52;3.08;;;22.10;50.30;;;;;;4934226;28;96784;-89
2023/02/02 16:04:41;;;;;;;12.57;3.22;;;22.00;53.20;;;;;;4933649;28;95897;-86
2023/02/02 16:07:14;;;;;;;10.68;2.80;;;22.00;54.30;;;;;;4934899;28;93352;-85
2023/02/02 16:09:40;;;;;;;9.48;3.08;;;21.80;55.20;;;;;;4935523;28;92632;-85
2023/02/02 16:19:29;;;;;;;9.00;2.85;;;21.80;56.90;;;;;;4935550;28;92619;-88
2023/02/02 16:22:04;;;;;;;7.05;2.75;;;21.70;57.30;;;;;;4976121;28;92534;-88
2023/02/02 16:24:36;;;;;;;8.75;3.13;;;21.80;57.30;;;;;;4988502;28;96647;-85
2023/02/02 16:27:05;;;;;;;16.08;3.60;;;21.80;57.40;;;;;;4971279;28;93260;-82
2023/02/02 16:29:31;;;;;;;11.00;3.25;;;21.90;57.10;;;;;;4974816;28;92496;-83
2023/02/02 16:31:57;;;;;;;8.43;3.00;;;22.00;57.40;;;;;;4974212;28;99383;-88
2023/02/02 16:34:40;;;;;;;11.25;3.35;;;22.00;57.30;;;;;;4974249;28;94337;-89
2023/02/02 16:37:12;;;;;;;16.52;3.25;;;22.10;57.10;;;;;;4972786;28;92688;-88
2023/02/02 16:39:38;;;;;;;11.10;3.38;;;22.10;57.20;;;;;;4973114;28;92515;-89